Roaring Spring, Pennsylvania
Current Conditions -  °F | °C
As of 12:54 PM on Wednesday 28 Jan 2015 (Local Time) from KJST Reporting Station
Clear Clear  
Wind Chill:   Ceiling: Unl
Heat Index: 15°   Visibility: 10mi
Dew Point:   Wind: 14mph
Humidity: 70%   Direction: 280°W
Pressure: 30.18"   Gusts: NA
Location:  40.34°N, 78.39°W
Report Text: KJST 281754Z AUTO 28012KT 10SM CLR M09/M14 A3018 RMK AO2 SLP264 60000 T10941139 11094 21133 58001
Loading
Personal Weather Stations






























Interactive Weather Map New forecast layout! Learn more

10-Day Weather Forecast

Advertisements
Track Severe Weather on mobile